sensor_id;sensor_type;location;lat;lon;timestamp;P1;durP1;ratioP1;P2;durP2;ratioP2
36659;SDS011;22654;51.054;3.654;2022-08-11T00:01:26;8.13;;;4.50;;
36659;SDS011;22654;51.054;3.654;2022-08-11T00:03:54;5.50;;;4.13;;
36659;SDS011;22654;51.054;3.654;2022-08-11T00:06:37;6.97;;;4.05;;
36659;SDS011;22654;51.054;3.654;2022-08-11T00:09:06;8.10;;;4.75;;
36659;SDS011;22654;51.054;3.654;2022-08-11T00:11:38;7.05;;;4.10;;
36659;SDS011;22654;51.054;3.654;2022-08-11T00:14:12;6.95;;;4.18;;
36659;SDS011;22654;51.054;3.654;2022-08-11T00:17:00;5.80;;;3.95;;
36659;SDS011;22654;51.054;3.654;2022-08-11T00:19:34;9.32;;;4.95;;
36659;SDS011;22654;51.054;3.654;2022-08-11T00:22:06;7.35;;;3.67;;
36659;SDS011;22654;51.054;3.654;2022-08-11T00:24:34;12.60;;;4.35;;
36659;SDS011;22654;51.054;3.654;2022-08-11T00:27:03;9.63;;;4.15;;
36659;SDS011;22654;51.054;3.654;2022-08-11T00:29:30;5.35;;;4.03;;
36659;SDS011;22654;51.054;3.654;2022-08-11T00:31:57;8.98;;;4.75;;
36659;SDS011;22654;51.054;3.654;2022-08-11T00:34:30;8.65;;;4.80;;
36659;SDS011;22654;51.054;3.654;2022-08-11T00:37:09;7.85;;;4.35;;
36659;SDS011;22654;51.054;3.654;2022-08-11T00:39:43;9.82;;;4.93;;
36659;SDS011;22654;51.054;3.654;2022-08-11T00:48:06;14.48;;;5.68;;
36659;SDS011;22654;51.054;3.654;2022-08-11T00:51:08;6.93;;;4.90;;
36659;SDS011;22654;51.054;3.654;2022-08-11T01:10:58;17.30;;;6.97;;
36659;SDS011;22654;51.054;3.654;2022-08-11T01:13:59;14.75;;;6.95;;
36659;SDS011;22654;51.054;3.654;2022-08-11T01:39:07;10.88;;;7.00;;
36659;SDS011;22654;51.054;3.654;2022-08-11T01:58:35;10.23;;;7.38;;
36659;SDS011;22654;51.054;3.654;2022-08-11T02:04:16;9.60;;;8.10;;
36659;SDS011;22654;51.054;3.654;2022-08-11T02:06:47;8.57;;;6.95;;
36659;SDS011;22654;51.054;3.654;2022-08-11T02:09:42;11.60;;;8.38;;
36659;SDS011;22654;51.054;3.654;2022-08-11T02:12:57;10.05;;;7.53;;
36659;SDS011;22654;51.054;3.654;2022-08-11T02:15:34;10.07;;;7.40;;
36659;SDS011;22654;51.054;3.654;2022-08-11T02:18:15;10.25;;;7.80;;
36659;SDS011;22654;51.054;3.654;2022-08-11T02:20:49;18.73;;;8.35;;
36659;SDS011;22654;51.054;3.654;2022-08-11T02:26:13;10.55;;;7.45;;
36659;SDS011;22654;51.054;3.654;2022-08-11T02:29:02;12.30;;;7.80;;
36659;SDS011;22654;51.054;3.654;2022-08-11T02:32:00;13.82;;;7.57;;
36659;SDS011;22654;51.054;3.654;2022-08-11T02:35:17;8.18;;;7.47;;
36659;SDS011;22654;51.054;3.654;2022-08-11T02:45:54;13.05;;;6.90;;
36659;SDS011;22654;51.054;3.654;2022-08-11T02:57:17;14.05;;;7.80;;
36659;SDS011;22654;51.054;3.654;2022-08-11T03:00:12;13.70;;;7.35;;
36659;SDS011;22654;51.054;3.654;2022-08-11T03:11:21;11.77;;;6.75;;
36659;SDS011;22654;51.054;3.654;2022-08-11T03:14:30;9.98;;;6.75;;
36659;SDS011;22654;51.054;3.654;2022-08-11T03:17:31;8.63;;;7.68;;
36659;SDS011;22654;51.054;3.654;2022-08-11T03:22:39;8.30;;;7.20;;
36659;SDS011;22654;51.054;3.654;2022-08-11T03:28:13;8.50;;;7.70;;
36659;SDS011;22654;51.054;3.654;2022-08-11T03:34:05;9.32;;;7.97;;
36659;SDS011;22654;51.054;3.654;2022-08-11T04:13:12;10.65;;;7.68;;
36659;SDS011;22654;51.054;3.654;2022-08-11T04:27:41;9.13;;;6.00;;
36659;SDS011;22654;51.054;3.654;2022-08-11T04:30:27;8.50;;;5.63;;
36659;SDS011;22654;51.054;3.654;2022-08-11T04:36:08;7.60;;;5.15;;
36659;SDS011;22654;51.054;3.654;2022-08-11T04:44:44;6.82;;;5.50;;
36659;SDS011;22654;51.054;3.654;2022-08-11T04:50:17;8.32;;;5.22;;
36659;SDS011;22654;51.054;3.654;2022-08-11T05:05:13;6.90;;;5.00;;
36659;SDS011;22654;51.054;3.654;2022-08-11T05:13:43;7.45;;;5.32;;
36659;SDS011;22654;51.054;3.654;2022-08-11T05:16:39;16.73;;;5.30;;
36659;SDS011;22654;51.054;3.654;2022-08-11T05:19:27;20.52;;;6.13;;
36659;SDS011;22654;51.054;3.654;2022-08-11T05:22:12;10.02;;;4.55;;
36659;SDS011;22654;51.054;3.654;2022-08-11T05:25:05;5.95;;;4.60;;
36659;SDS011;22654;51.054;3.654;2022-08-11T05:28:04;13.95;;;5.28;;
36659;SDS011;22654;51.054;3.654;2022-08-11T05:30:54;7.53;;;4.70;;
36659;SDS011;22654;51.054;3.654;2022-08-11T05:33:48;8.02;;;4.75;;
36659;SDS011;22654;51.054;3.654;2022-08-11T05:36:46;10.98;;;4.50;;
36659;SDS011;22654;51.054;3.654;2022-08-11T05:39:22;6.15;;;4.60;;
36659;SDS011;22654;51.054;3.654;2022-08-11T05:42:08;10.80;;;4.78;;
36659;SDS011;22654;51.054;3.654;2022-08-11T05:44:54;8.48;;;4.90;;
36659;SDS011;22654;51.054;3.654;2022-08-11T05:47:44;7.97;;;4.65;;
36659;SDS011;22654;51.054;3.654;2022-08-11T05:50:32;12.68;;;4.82;;
36659;SDS011;22654;51.054;3.654;2022-08-11T05:53:17;9.57;;;5.00;;
36659;SDS011;22654;51.054;3.654;2022-08-11T05:56:05;8.93;;;5.55;;
36659;SDS011;22654;51.054;3.654;2022-08-11T05:58:51;12.68;;;5.53;;
36659;SDS011;22654;51.054;3.654;2022-08-11T06:01:23;10.63;;;5.15;;
36659;SDS011;22654;51.054;3.654;2022-08-11T06:03:59;8.23;;;5.13;;
36659;SDS011;22654;51.054;3.654;2022-08-11T06:06:50;8.75;;;5.22;;
36659;SDS011;22654;51.054;3.654;2022-08-11T06:09:21;9.52;;;5.60;;
36659;SDS011;22654;51.054;3.654;2022-08-11T06:11:48;9.70;;;5.25;;
36659;SDS011;22654;51.054;3.654;2022-08-11T06:14:15;7.85;;;4.70;;
36659;SDS011;22654;51.054;3.654;2022-08-11T06:16:42;10.35;;;4.90;;
36659;SDS011;22654;51.054;3.654;2022-08-11T06:19:12;7.83;;;4.73;;
36659;SDS011;22654;51.054;3.654;2022-08-11T06:21:42;5.90;;;4.47;;
36659;SDS011;22654;51.054;3.654;2022-08-11T06:24:11;8.00;;;5.22;;
36659;SDS011;22654;51.054;3.654;2022-08-11T06:26:39;8.27;;;4.50;;
36659;SDS011;22654;51.054;3.654;2022-08-11T06:29:06;14.98;;;5.82;;
36659;SDS011;22654;51.054;3.654;2022-08-11T06:31:33;14.35;;;4.65;;
36659;SDS011;22654;51.054;3.654;2022-08-11T06:36:41;7.75;;;4.20;;
36659;SDS011;22654;51.054;3.654;2022-08-11T06:39:26;10.63;;;4.80;;
36659;SDS011;22654;51.054;3.654;2022-08-11T06:44:42;16.70;;;4.75;;
36659;SDS011;22654;51.054;3.654;2022-08-11T06:47:15;9.48;;;4.05;;
36659;SDS011;22654;51.054;3.654;2022-08-11T06:49:45;6.80;;;3.92;;
36659;SDS011;22654;51.054;3.654;2022-08-11T06:52:34;6.57;;;4.20;;
36659;SDS011;22654;51.054;3.654;2022-08-11T06:55:44;14.27;;;4.20;;
36659;SDS011;22654;51.054;3.654;2022-08-11T06:58:15;7.63;;;3.75;;
36659;SDS011;22654;51.054;3.654;2022-08-11T07:01:10;10.35;;;4.05;;
36659;SDS011;22654;51.054;3.654;2022-08-11T07:03:41;7.30;;;4.00;;
36659;SDS011;22654;51.054;3.654;2022-08-11T07:09:46;10.23;;;4.20;;
36659;SDS011;22654;51.054;3.654;2022-08-11T07:12:40;11.93;;;4.18;;
36659;SDS011;22654;51.054;3.654;2022-08-11T07:15:31;10.25;;;4.40;;
36659;SDS011;22654;51.054;3.654;2022-08-11T07:18:10;8.75;;;3.65;;
36659;SDS011;22654;51.054;3.654;2022-08-11T07:21:28;8.20;;;3.83;;
36659;SDS011;22654;51.054;3.654;2022-08-11T07:24:16;10.57;;;3.83;;
36659;SDS011;22654;51.054;3.654;2022-08-11T07:27:03;7.45;;;3.15;;
36659;SDS011;22654;51.054;3.654;2022-08-11T07:29:51;7.38;;;3.55;;
36659;SDS011;22654;51.054;3.654;2022-08-11T07:32:27;4.65;;;3.13;;
36659;SDS011;22654;51.054;3.654;2022-08-11T07:34:58;5.32;;;2.97;;
36659;SDS011;22654;51.054;3.654;2022-08-11T07:37:33;11.63;;;3.40;;
36659;SDS011;22654;51.054;3.654;2022-08-11T07:40:00;7.05;;;3.33;;
36659;SDS011;22654;51.054;3.654;2022-08-11T07:42:31;8.02;;;3.00;;
36659;SDS011;22654;51.054;3.654;2022-08-11T07:45:00;6.15;;;2.83;;
36659;SDS011;22654;51.054;3.654;2022-08-11T07:47:47;7.55;;;2.90;;
36659;SDS011;22654;51.054;3.654;2022-08-11T07:50:33;6.32;;;3.30;;
36659;SDS011;22654;51.054;3.654;2022-08-11T07:53:18;7.10;;;3.20;;
36659;SDS011;22654;51.054;3.654;2022-08-11T07:55:49;7.30;;;3.47;;
36659;SDS011;22654;51.054;3.654;2022-08-11T07:58:22;5.70;;;3.30;;
36659;SDS011;22654;51.054;3.654;2022-08-11T08:01:08;9.85;;;3.38;;
36659;SDS011;22654;51.054;3.654;2022-08-11T08:03:55;10.65;;;3.63;;
36659;SDS011;22654;51.054;3.654;2022-08-11T08:06:42;11.25;;;3.28;;
36659;SDS011;22654;51.054;3.654;2022-08-11T08:09:28;8.15;;;3.35;;
36659;SDS011;22654;51.054;3.654;2022-08-11T08:12:17;5.53;;;2.85;;
36659;SDS011;22654;51.054;3.654;2022-08-11T08:15:06;8.50;;;3.40;;
36659;SDS011;22654;51.054;3.654;2022-08-11T08:17:52;5.35;;;2.70;;
36659;SDS011;22654;51.054;3.654;2022-08-11T08:20:26;13.57;;;3.07;;
36659;SDS011;22654;51.054;3.654;2022-08-11T08:22:59;5.07;;;3.05;;
36659;SDS011;22654;51.054;3.654;2022-08-11T08:25:30;14.00;;;3.17;;
36659;SDS011;22654;51.054;3.654;2022-08-11T08:27:58;12.57;;;3.20;;
36659;SDS011;22654;51.054;3.654;2022-08-11T08:30:25;4.07;;;3.03;;
36659;SDS011;22654;51.054;3.654;2022-08-11T08:33:12;5.15;;;3.00;;
36659;SDS011;22654;51.054;3.654;2022-08-11T08:35:43;10.98;;;3.53;;
36659;SDS011;22654;51.054;3.654;2022-08-11T08:38:10;5.72;;;2.92;;
36659;SDS011;22654;51.054;3.654;2022-08-11T08:40:38;7.50;;;3.13;;
36659;SDS011;22654;51.054;3.654;2022-08-11T08:43:08;7.28;;;2.90;;
36659;SDS011;22654;51.054;3.654;2022-08-11T08:45:39;12.15;;;3.47;;
36659;SDS011;22654;51.054;3.654;2022-08-11T08:48:16;10.93;;;3.33;;
36659;SDS011;22654;51.054;3.654;2022-08-11T08:50:49;8.70;;;2.55;;
36659;SDS011;22654;51.054;3.654;2022-08-11T08:53:50;10.82;;;3.10;;
36659;SDS011;22654;51.054;3.654;2022-08-11T08:56:17;7.97;;;2.95;;
36659;SDS011;22654;51.054;3.654;2022-08-11T08:58:49;10.45;;;3.38;;
36659;SDS011;22654;51.054;3.654;2022-08-11T09:01:15;5.70;;;3.00;;
36659;SDS011;22654;51.054;3.654;2022-08-11T09:03:45;9.63;;;3.15;;
36659;SDS011;22654;51.054;3.654;2022-08-11T09:06:11;4.80;;;3.00;;
36659;SDS011;22654;51.054;3.654;2022-08-11T09:08:40;6.50;;;2.80;;
36659;SDS011;22654;51.054;3.654;2022-08-11T09:11:08;6.78;;;3.10;;
36659;SDS011;22654;51.054;3.654;2022-08-11T09:13:53;8.60;;;2.97;;
36659;SDS011;22654;51.054;3.654;2022-08-11T09:16:23;10.50;;;3.10;;
36659;SDS011;22654;51.054;3.654;2022-08-11T09:18:50;8.68;;;3.17;;
36659;SDS011;22654;51.054;3.654;2022-08-11T09:21:17;20.17;;;3.92;;
36659;SDS011;22654;51.054;3.654;2022-08-11T09:23:48;7.60;;;3.37;;
36659;SDS011;22654;51.054;3.654;2022-08-11T09:26:34;12.75;;;3.50;;
36659;SDS011;22654;51.054;3.654;2022-08-11T09:29:19;10.70;;;2.70;;
36659;SDS011;22654;51.054;3.654;2022-08-11T09:31:46;6.72;;;2.45;;
36659;SDS011;22654;51.054;3.654;2022-08-11T09:34:13;6.15;;;2.55;;
36659;SDS011;22654;51.054;3.654;2022-08-11T09:36:40;5.07;;;2.70;;
36659;SDS011;22654;51.054;3.654;2022-08-11T09:39:29;3.90;;;2.15;;
36659;SDS011;22654;51.054;3.654;2022-08-11T09:42:15;6.13;;;2.22;;
36659;SDS011;22654;51.054;3.654;2022-08-11T09:44:44;4.65;;;2.20;;
36659;SDS011;22654;51.054;3.654;2022-08-11T09:47:23;4.60;;;2.03;;
36659;SDS011;22654;51.054;3.654;2022-08-11T09:49:56;7.40;;;2.30;;
36659;SDS011;22654;51.054;3.654;2022-08-11T09:52:24;4.18;;;2.13;;
36659;SDS011;22654;51.054;3.654;2022-08-11T09:54:51;8.35;;;2.30;;
36659;SDS011;22654;51.054;3.654;2022-08-11T09:57:19;4.60;;;2.53;;
36659;SDS011;22654;51.054;3.654;2022-08-11T10:00:08;3.83;;;2.20;;
36659;SDS011;22654;51.054;3.654;2022-08-11T10:02:39;6.85;;;2.40;;
36659;SDS011;22654;51.054;3.654;2022-08-11T10:05:08;7.00;;;2.72;;
36659;SDS011;22654;51.054;3.654;2022-08-11T10:07:54;6.10;;;2.50;;
36659;SDS011;22654;51.054;3.654;2022-08-11T10:10:21;4.43;;;2.28;;
36659;SDS011;22654;51.054;3.654;2022-08-11T10:12:58;3.72;;;2.00;;
36659;SDS011;22654;51.054;3.654;2022-08-11T10:15:30;6.38;;;2.15;;
36659;SDS011;22654;51.054;3.654;2022-08-11T10:18:02;4.50;;;2.37;;
36659;SDS011;22654;51.054;3.654;2022-08-11T10:20:49;5.40;;;2.53;;
36659;SDS011;22654;51.054;3.654;2022-08-11T10:23:16;6.22;;;2.00;;
36659;SDS011;22654;51.054;3.654;2022-08-11T10:26:02;5.15;;;2.17;;
36659;SDS011;22654;51.054;3.654;2022-08-11T10:28:47;6.60;;;2.13;;
36659;SDS011;22654;51.054;3.654;2022-08-11T10:31:14;4.70;;;1.88;;
36659;SDS011;22654;51.054;3.654;2022-08-11T10:34:00;4.70;;;1.95;;
36659;SDS011;22654;51.054;3.654;2022-08-11T10:38:57;5.95;;;2.78;;
36659;SDS011;22654;51.054;3.654;2022-08-11T10:41:24;3.20;;;1.88;;
36659;SDS011;22654;51.054;3.654;2022-08-11T10:44:11;2.22;;;1.90;;
36659;SDS011;22654;51.054;3.654;2022-08-11T10:46:38;6.30;;;2.00;;
36659;SDS011;22654;51.054;3.654;2022-08-11T10:49:23;3.95;;;1.80;;
36659;SDS011;22654;51.054;3.654;2022-08-11T10:51:51;6.88;;;1.90;;
36659;SDS011;22654;51.054;3.654;2022-08-11T10:54:38;4.90;;;2.28;;
36659;SDS011;22654;51.054;3.654;2022-08-11T10:57:25;3.85;;;2.53;;
36659;SDS011;22654;51.054;3.654;2022-08-11T11:00:11;3.17;;;1.88;;
36659;SDS011;22654;51.054;3.654;2022-08-11T11:02:44;4.07;;;1.92;;
36659;SDS011;22654;51.054;3.654;2022-08-11T11:10:51;11.38;;;3.17;;
36659;SDS011;22654;51.054;3.654;2022-08-11T11:13:17;5.47;;;2.10;;
36659;SDS011;22654;51.054;3.654;2022-08-11T11:16:04;6.50;;;2.00;;
36659;SDS011;22654;51.054;3.654;2022-08-11T11:19:08;2.85;;;1.75;;
36659;SDS011;22654;51.054;3.654;2022-08-11T11:21:37;7.63;;;2.28;;
36659;SDS011;22654;51.054;3.654;2022-08-11T11:27:31;4.90;;;2.25;;
36659;SDS011;22654;51.054;3.654;2022-08-11T11:29:50;6.40;;;2.38;;
36659;SDS011;22654;51.054;3.654;2022-08-11T11:40:07;5.85;;;2.42;;
36659;SDS011;22654;51.054;3.654;2022-08-11T11:42:36;3.95;;;2.42;;
36659;SDS011;22654;51.054;3.654;2022-08-11T11:45:08;4.18;;;2.55;;
36659;SDS011;22654;51.054;3.654;2022-08-11T11:47:38;4.95;;;2.88;;
36659;SDS011;22654;51.054;3.654;2022-08-11T11:50:05;3.35;;;2.17;;
36659;SDS011;22654;51.054;3.654;2022-08-11T11:52:32;7.05;;;2.60;;
36659;SDS011;22654;51.054;3.654;2022-08-11T11:54:59;7.30;;;2.53;;
36659;SDS011;22654;51.054;3.654;2022-08-11T11:57:26;7.53;;;2.30;;
36659;SDS011;22654;51.054;3.654;2022-08-11T12:00:11;8.73;;;2.20;;
36659;SDS011;22654;51.054;3.654;2022-08-11T12:02:57;5.63;;;2.15;;
36659;SDS011;22654;51.054;3.654;2022-08-11T12:05:26;5.25;;;2.25;;
36659;SDS011;22654;51.054;3.654;2022-08-11T12:07:52;4.10;;;2.00;;
36659;SDS011;22654;51.054;3.654;2022-08-11T12:10:48;6.72;;;2.65;;
36659;SDS011;22654;51.054;3.654;2022-08-11T12:13:38;3.70;;;2.22;;
36659;SDS011;22654;51.054;3.654;2022-08-11T12:16:07;3.95;;;2.38;;
36659;SDS011;22654;51.054;3.654;2022-08-11T12:18:35;4.93;;;1.80;;
36659;SDS011;22654;51.054;3.654;2022-08-11T12:21:02;3.17;;;2.08;;
36659;SDS011;22654;51.054;3.654;2022-08-11T12:23:28;11.23;;;2.53;;
36659;SDS011;22654;51.054;3.654;2022-08-11T12:26:15;11.88;;;2.72;;
36659;SDS011;22654;51.054;3.654;2022-08-11T12:29:02;6.25;;;2.63;;
36659;SDS011;22654;51.054;3.654;2022-08-11T12:31:30;6.43;;;2.42;;
36659;SDS011;22654;51.054;3.654;2022-08-11T12:34:04;5.57;;;2.40;;
36659;SDS011;22654;51.054;3.654;2022-08-11T12:36:39;8.60;;;2.53;;
36659;SDS011;22654;51.054;3.654;2022-08-11T12:39:08;4.32;;;2.13;;
36659;SDS011;22654;51.054;3.654;2022-08-11T12:41:36;10.02;;;2.40;;
36659;SDS011;22654;51.054;3.654;2022-08-11T12:44:23;3.83;;;2.10;;
36659;SDS011;22654;51.054;3.654;2022-08-11T12:47:09;6.22;;;2.10;;
36659;SDS011;22654;51.054;3.654;2022-08-11T12:49:41;6.60;;;2.13;;
36659;SDS011;22654;51.054;3.654;2022-08-11T12:52:31;7.45;;;2.17;;
36659;SDS011;22654;51.054;3.654;2022-08-11T12:55:02;3.10;;;2.40;;
36659;SDS011;22654;51.054;3.654;2022-08-11T12:57:36;5.05;;;2.40;;
36659;SDS011;22654;51.054;3.654;2022-08-11T13:00:23;3.15;;;2.60;;
36659;SDS011;22654;51.054;3.654;2022-08-11T13:03:13;7.63;;;2.53;;
36659;SDS011;22654;51.054;3.654;2022-08-11T13:06:01;5.88;;;2.17;;
36659;SDS011;22654;51.054;3.654;2022-08-11T13:08:28;4.97;;;2.30;;
36659;SDS011;22654;51.054;3.654;2022-08-11T13:10:59;4.03;;;2.22;;
36659;SDS011;22654;51.054;3.654;2022-08-11T13:13:46;2.45;;;2.13;;
36659;SDS011;22654;51.054;3.654;2022-08-11T13:16:13;3.30;;;2.00;;
36659;SDS011;22654;51.054;3.654;2022-08-11T13:21:06;6.57;;;2.47;;
36659;SDS011;22654;51.054;3.654;2022-08-11T13:23:37;4.05;;;2.15;;
36659;SDS011;22654;51.054;3.654;2022-08-11T13:26:05;3.05;;;2.15;;
36659;SDS011;22654;51.054;3.654;2022-08-11T13:28:35;5.85;;;2.47;;
36659;SDS011;22654;51.054;3.654;2022-08-11T13:31:02;12.30;;;3.22;;
36659;SDS011;22654;51.054;3.654;2022-08-11T13:33:43;2.33;;;2.15;;
36659;SDS011;22654;51.054;3.654;2022-08-11T13:36:11;5.47;;;1.92;;
36659;SDS011;22654;51.054;3.654;2022-08-11T13:38:40;4.85;;;1.83;;
36659;SDS011;22654;51.054;3.654;2022-08-11T13:41:08;7.72;;;2.45;;
36659;SDS011;22654;51.054;3.654;2022-08-11T13:43:53;3.03;;;2.13;;
36659;SDS011;22654;51.054;3.654;2022-08-11T13:46:20;3.55;;;2.13;;
36659;SDS011;22654;51.054;3.654;2022-08-11T13:48:51;5.10;;;2.20;;
36659;SDS011;22654;51.054;3.654;2022-08-11T13:51:20;4.35;;;1.80;;
36659;SDS011;22654;51.054;3.654;2022-08-11T13:54:07;4.47;;;2.30;;
36659;SDS011;22654;51.054;3.654;2022-08-11T13:56:36;4.30;;;2.00;;
36659;SDS011;22654;51.054;3.654;2022-08-11T13:59:06;2.90;;;2.28;;
36659;SDS011;22654;51.054;3.654;2022-08-11T14:01:34;6.38;;;2.10;;
36659;SDS011;22654;51.054;3.654;2022-08-11T14:04:13;10.85;;;1.90;;
36659;SDS011;22654;51.054;3.654;2022-08-11T14:06:47;7.43;;;2.35;;
36659;SDS011;22654;51.054;3.654;2022-08-11T14:09:19;5.22;;;2.22;;
36659;SDS011;22654;51.054;3.654;2022-08-11T14:11:50;7.15;;;2.45;;
36659;SDS011;22654;51.054;3.654;2022-08-11T14:14:39;4.63;;;1.75;;
36659;SDS011;22654;51.054;3.654;2022-08-11T14:17:07;3.47;;;1.92;;
36659;SDS011;22654;51.054;3.654;2022-08-11T14:19:35;4.55;;;1.92;;
36659;SDS011;22654;51.054;3.654;2022-08-11T14:22:04;6.22;;;2.13;;
36659;SDS011;22654;51.054;3.654;2022-08-11T14:24:32;3.67;;;2.10;;
36659;SDS011;22654;51.054;3.654;2022-08-11T14:27:04;4.15;;;1.90;;
36659;SDS011;22654;51.054;3.654;2022-08-11T14:29:32;7.82;;;1.95;;
36659;SDS011;22654;51.054;3.654;2022-08-11T14:34:39;5.88;;;2.05;;
36659;SDS011;22654;51.054;3.654;2022-08-11T14:37:10;5.50;;;1.95;;
36659;SDS011;22654;51.054;3.654;2022-08-11T14:42:14;6.03;;;2.33;;
36659;SDS011;22654;51.054;3.654;2022-08-11T14:45:06;3.83;;;2.40;;
36659;SDS011;22654;51.054;3.654;2022-08-11T14:47:58;4.43;;;2.63;;
36659;SDS011;22654;51.054;3.654;2022-08-11T14:50:29;5.85;;;2.15;;
36659;SDS011;22654;51.054;3.654;2022-08-11T14:55:28;7.25;;;2.35;;
36659;SDS011;22654;51.054;3.654;2022-08-11T14:58:18;4.18;;;2.13;;
36659;SDS011;22654;51.054;3.654;2022-08-11T15:00:45;5.57;;;2.10;;
36659;SDS011;22654;51.054;3.654;2022-08-11T15:03:15;6.97;;;2.17;;
36659;SDS011;22654;51.054;3.654;2022-08-11T15:08:18;3.60;;;2.40;;
36659;SDS011;22654;51.054;3.654;2022-08-11T15:11:05;5.15;;;2.25;;
36659;SDS011;22654;51.054;3.654;2022-08-11T15:13:53;6.68;;;2.13;;
36659;SDS011;22654;51.054;3.654;2022-08-11T15:16:20;4.90;;;2.28;;
36659;SDS011;22654;51.054;3.654;2022-08-11T15:19:06;7.80;;;1.92;;
36659;SDS011;22654;51.054;3.654;2022-08-11T15:21:32;5.20;;;2.28;;
36659;SDS011;22654;51.054;3.654;2022-08-11T15:24:16;3.95;;;2.33;;
36659;SDS011;22654;51.054;3.654;2022-08-11T15:26:45;6.65;;;2.25;;
36659;SDS011;22654;51.054;3.654;2022-08-11T15:29:32;4.57;;;2.30;;
36659;SDS011;22654;51.054;3.654;2022-08-11T15:32:18;4.60;;;2.35;;
36659;SDS011;22654;51.054;3.654;2022-08-11T15:34:57;7.45;;;2.38;;
36659;SDS011;22654;51.054;3.654;2022-08-11T15:37:43;11.77;;;2.58;;
36659;SDS011;22654;51.054;3.654;2022-08-11T15:42:59;3.47;;;2.20;;
36659;SDS011;22654;51.054;3.654;2022-08-11T15:45:49;8.18;;;2.28;;
36659;SDS011;22654;51.054;3.654;2022-08-11T15:51:02;5.93;;;2.35;;
36659;SDS011;22654;51.054;3.654;2022-08-11T15:53:44;7.32;;;2.75;;
36659;SDS011;22654;51.054;3.654;2022-08-11T15:56:14;8.13;;;2.40;;
36659;SDS011;22654;51.054;3.654;2022-08-11T15:58:42;4.03;;;2.42;;
36659;SDS011;22654;51.054;3.654;2022-08-11T16:01:30;4.15;;;2.50;;
36659;SDS011;22654;51.054;3.654;2022-08-11T16:04:18;4.43;;;2.35;;
36659;SDS011;22654;51.054;3.654;2022-08-11T16:09:43;4.47;;;2.28;;
36659;SDS011;22654;51.054;3.654;2022-08-11T16:12:13;6.20;;;2.08;;
36659;SDS011;22654;51.054;3.654;2022-08-11T16:14:44;2.83;;;2.30;;
36659;SDS011;22654;51.054;3.654;2022-08-11T16:17:40;9.68;;;2.25;;
36659;SDS011;22654;51.054;3.654;2022-08-11T16:20:13;5.70;;;2.75;;
36659;SDS011;22654;51.054;3.654;2022-08-11T16:22:41;7.20;;;2.30;;
36659;SDS011;22654;51.054;3.654;2022-08-11T16:25:13;3.87;;;2.43;;
36659;SDS011;22654;51.054;3.654;2022-08-11T16:27:46;4.57;;;2.30;;
36659;SDS011;22654;51.054;3.654;2022-08-11T16:30:16;2.60;;;1.92;;
36659;SDS011;22654;51.054;3.654;2022-08-11T16:32:43;10.57;;;2.75;;
36659;SDS011;22654;51.054;3.654;2022-08-11T16:35:17;7.22;;;2.25;;
36659;SDS011;22654;51.054;3.654;2022-08-11T16:38:06;3.05;;;2.47;;
36659;SDS011;22654;51.054;3.654;2022-08-11T16:40:53;6.72;;;2.53;;
36659;SDS011;22654;51.054;3.654;2022-08-11T16:43:21;12.65;;;3.35;;
36659;SDS011;22654;51.054;3.654;2022-08-11T16:46:08;7.32;;;2.38;;
36659;SDS011;22654;51.054;3.654;2022-08-11T16:48:54;2.97;;;2.50;;
36659;SDS011;22654;51.054;3.654;2022-08-11T16:51:23;3.28;;;1.98;;
36659;SDS011;22654;51.054;3.654;2022-08-11T16:53:49;5.53;;;2.22;;
36659;SDS011;22654;51.054;3.654;2022-08-11T16:56:16;2.72;;;2.28;;
36659;SDS011;22654;51.054;3.654;2022-08-11T16:58:45;6.53;;;2.17;;
36659;SDS011;22654;51.054;3.654;2022-08-11T17:01:42;5.93;;;2.30;;
36659;SDS011;22654;51.054;3.654;2022-08-11T17:04:57;3.85;;;2.53;;
36659;SDS011;22654;51.054;3.654;2022-08-11T17:07:26;3.35;;;2.10;;
36659;SDS011;22654;51.054;3.654;2022-08-11T17:10:22;3.60;;;2.42;;
36659;SDS011;22654;51.054;3.654;2022-08-11T17:13:28;6.90;;;2.80;;
36659;SDS011;22654;51.054;3.654;2022-08-11T17:16:00;5.70;;;2.65;;
36659;SDS011;22654;51.054;3.654;2022-08-11T17:18:32;5.75;;;2.20;;
36659;SDS011;22654;51.054;3.654;2022-08-11T17:21:23;5.32;;;2.35;;
36659;SDS011;22654;51.054;3.654;2022-08-11T17:24:24;5.65;;;3.00;;
36659;SDS011;22654;51.054;3.654;2022-08-11T17:26:53;6.25;;;2.50;;
36659;SDS011;22654;51.054;3.654;2022-08-11T17:31:58;4.30;;;3.00;;
36659;SDS011;22654;51.054;3.654;2022-08-11T17:34:45;4.88;;;2.80;;
36659;SDS011;22654;51.054;3.654;2022-08-11T17:37:31;4.13;;;2.50;;
36659;SDS011;22654;51.054;3.654;2022-08-11T17:39:59;5.15;;;2.60;;
36659;SDS011;22654;51.054;3.654;2022-08-11T17:42:27;8.52;;;2.70;;
36659;SDS011;22654;51.054;3.654;2022-08-11T17:45:14;4.70;;;2.70;;
36659;SDS011;22654;51.054;3.654;2022-08-11T17:48:03;4.65;;;2.30;;
36659;SDS011;22654;51.054;3.654;2022-08-11T17:50:50;2.70;;;2.50;;
36659;SDS011;22654;51.054;3.654;2022-08-11T17:53:18;5.13;;;2.03;;
36659;SDS011;22654;51.054;3.654;2022-08-11T17:56:04;3.60;;;2.63;;
36659;SDS011;22654;51.054;3.654;2022-08-11T17:58:51;5.35;;;2.92;;
36659;SDS011;22654;51.054;3.654;2022-08-11T18:01:37;3.78;;;2.60;;
36659;SDS011;22654;51.054;3.654;2022-08-11T18:04:06;5.05;;;2.15;;
36659;SDS011;22654;51.054;3.654;2022-08-11T18:06:35;4.57;;;2.63;;
36659;SDS011;22654;51.054;3.654;2022-08-11T18:09:04;5.25;;;3.45;;
36659;SDS011;22654;51.054;3.654;2022-08-11T18:12:00;5.90;;;2.67;;
36659;SDS011;22654;51.054;3.654;2022-08-11T18:14:48;5.65;;;2.22;;
36659;SDS011;22654;51.054;3.654;2022-08-11T18:17:34;6.55;;;2.65;;
36659;SDS011;22654;51.054;3.654;2022-08-11T18:20:20;6.57;;;3.08;;
36659;SDS011;22654;51.054;3.654;2022-08-11T18:23:06;2.45;;;2.25;;
36659;SDS011;22654;51.054;3.654;2022-08-11T18:25:54;3.47;;;2.33;;
36659;SDS011;22654;51.054;3.654;2022-08-11T18:28:48;6.25;;;2.47;;
36659;SDS011;22654;51.054;3.654;2022-08-11T18:31:37;3.38;;;2.55;;
36659;SDS011;22654;51.054;3.654;2022-08-11T18:34:30;7.47;;;2.47;;
36659;SDS011;22654;51.054;3.654;2022-08-11T18:37:20;7.88;;;3.00;;
36659;SDS011;22654;51.054;3.654;2022-08-11T18:40:19;6.90;;;3.80;;
36659;SDS011;22654;51.054;3.654;2022-08-11T18:43:08;7.50;;;2.50;;
36659;SDS011;22654;51.054;3.654;2022-08-11T18:45:59;4.90;;;2.50;;
36659;SDS011;22654;51.054;3.654;2022-08-11T18:48:48;5.55;;;3.05;;
36659;SDS011;22654;51.054;3.654;2022-08-11T18:51:35;3.72;;;2.88;;
36659;SDS011;22654;51.054;3.654;2022-08-11T18:54:24;9.05;;;2.75;;
36659;SDS011;22654;51.054;3.654;2022-08-11T18:57:09;4.47;;;2.80;;
36659;SDS011;22654;51.054;3.654;2022-08-11T18:59:58;4.45;;;3.25;;
36659;SDS011;22654;51.054;3.654;2022-08-11T19:02:45;3.67;;;2.80;;
36659;SDS011;22654;51.054;3.654;2022-08-11T19:05:31;7.88;;;3.03;;
36659;SDS011;22654;51.054;3.654;2022-08-11T19:08:19;7.95;;;3.00;;
36659;SDS011;22654;51.054;3.654;2022-08-11T19:11:05;3.72;;;2.70;;
36659;SDS011;22654;51.054;3.654;2022-08-11T19:13:51;3.90;;;2.63;;
36659;SDS011;22654;51.054;3.654;2022-08-11T19:16:36;6.82;;;2.72;;
36659;SDS011;22654;51.054;3.654;2022-08-11T19:19:23;4.20;;;2.85;;
36659;SDS011;22654;51.054;3.654;2022-08-11T19:22:10;13.98;;;3.10;;
36659;SDS011;22654;51.054;3.654;2022-08-11T19:24:54;11.07;;;2.88;;
36659;SDS011;22654;51.054;3.654;2022-08-11T19:27:41;6.00;;;3.20;;
36659;SDS011;22654;51.054;3.654;2022-08-11T19:30:29;8.13;;;2.85;;
36659;SDS011;22654;51.054;3.654;2022-08-11T19:33:15;5.32;;;2.92;;
36659;SDS011;22654;51.054;3.654;2022-08-11T19:36:01;9.25;;;3.78;;
36659;SDS011;22654;51.054;3.654;2022-08-11T19:38:46;9.40;;;3.08;;
36659;SDS011;22654;51.054;3.654;2022-08-11T19:41:32;11.60;;;4.95;;
36659;SDS011;22654;51.054;3.654;2022-08-11T19:44:16;8.13;;;3.30;;
36659;SDS011;22654;51.054;3.654;2022-08-11T19:47:04;7.85;;;2.97;;